»·PEaware :: N667SB KBOI-KGPI

N667SB :: KBOI-KGPI

FLIGHT INFORMATION

Flight Status: Arrived
Operator: Privately registered:
United States
More flights under this callsign
Pilot: Dean S. (16265)
Aircraft: CESSNA 421 GOLDEN EAGLE
(C421)
More flights by this aircraft type
Origin: KBOI Boise Air Terminal/Gowen
United States
Destination: KGPI Glacier Park Intl
United States
More flights between these airports :: More routes between these airports
Route: DNJ MSO
File this flight plan on PilotEdge
Remarks:
Altitude:
(Current/Filed)
17,500ft
Speed:
(Current/Filed)
200kts
Departed: 07-Sep-18 09:46 AM
Arrived: 07-Sep-18 11:11 AM
Distance/Time
Traveled:
296nm/1:25
Distance/Time
To Go:
Arrived

Flight Plot

Page will automatically refresh every two minutes.

Flight plan parsing failed; only flown route is shown


Map Options




Map Legend


Flown Route
Filed Route
Departure Airport
Arrival Airport
Navaid (VOR, NDB)
Fix

Horizontal Profiles

Position Reports

Time Latitude Longitude Heading Altitude Ground
Speed
07-Sep-18 09:31 43.563870 -116.230989 204 2838ft 0kts
07-Sep-18 09:32 43.563870 -116.230989 204 2838ft 0kts
07-Sep-18 09:33 43.563870 -116.230989 204 2838ft 0kts
07-Sep-18 09:34 43.563870 -116.230989 204 2838ft 0kts
07-Sep-18 09:35 43.563870 -116.230989 204 2838ft 0kts
07-Sep-18 09:36 43.563870 -116.230989 204 2838ft 0kts
07-Sep-18 09:37 43.563870 -116.230989 204 2838ft 0kts
07-Sep-18 09:38 43.563870 -116.230990 204 2838ft 0kts
07-Sep-18 09:39 43.563869 -116.230990 204 2838ft 0kts
07-Sep-18 09:40 43.563869 -116.230990 204 2838ft 0kts
07-Sep-18 09:41 43.563863 -116.230994 206 2838ft 0kts
07-Sep-18 09:42 43.563958 -116.228918 114 2838ft 12kts
07-Sep-18 09:43 43.562211 -116.223619 111 2838ft 17kts
07-Sep-18 09:44 43.560213 -116.217638 115 2838ft 18kts
07-Sep-18 09:45 43.557814 -116.210577 107 2838ft 12kts
07-Sep-18 09:46 43.558095 -116.209976 24 2838ft 0kts
07-Sep-18 09:47 43.558962 -116.210224 297 2838ft 19kts
07-Sep-18 09:48 43.571573 -116.242959 317 3839ft 120kts
07-Sep-18 09:49 43.610384 -116.243908 4 5330ft 156kts
07-Sep-18 09:50 43.655822 -116.244815 356 6800ft 179kts
07-Sep-18 09:51 43.703262 -116.223053 8 8427ft 179kts
07-Sep-18 09:52 43.753489 -116.220257 0 10232ft 181kts
07-Sep-18 09:53 43.802503 -116.231820 323 12039ft 186kts
07-Sep-18 09:54 43.843361 -116.277380 320 13843ft 190kts
07-Sep-18 09:55 43.886064 -116.322040 336 15647ft 193kts
07-Sep-18 09:56 43.939426 -116.327068 4 17389ft 198kts
07-Sep-18 09:57 44.001641 -116.317879 5 17504ft 242kts
07-Sep-18 09:58 44.070206 -116.307979 5 17510ft 249kts
07-Sep-18 09:59 44.139353 -116.298103 5 17516ft 250kts
07-Sep-18 10:00 44.208835 -116.288089 5 17523ft 250kts
07-Sep-18 10:01 44.278092 -116.278068 5 17531ft 250kts
07-Sep-18 10:02 44.347331 -116.268027 5 17540ft 250kts
07-Sep-18 10:03 44.416847 -116.257921 5 17544ft 250kts
07-Sep-18 10:04 44.486114 -116.247825 5 17553ft 250kts
07-Sep-18 10:05 44.555374 -116.237709 5 17563ft 250kts
07-Sep-18 10:06 44.624853 -116.227530 5 17581ft 250kts
07-Sep-18 10:07 44.694200 -116.217331 5 17585ft 251kts
07-Sep-18 10:08 44.763514 -116.206087 14 17586ft 251kts
07-Sep-18 10:09 44.822725 -116.154241 33 17589ft 251kts
07-Sep-18 10:10 44.880588 -116.099134 33 17589ft 251kts
07-Sep-18 10:11 44.938650 -116.043826 33 17589ft 251kts
07-Sep-18 10:12 44.996521 -115.988619 33 17588ft 251kts
07-Sep-18 10:13 45.054575 -115.933107 33 17587ft 251kts
07-Sep-18 10:14 45.112441 -115.877639 33 17584ft 251kts
07-Sep-18 10:15 45.170272 -115.822065 33 17580ft 251kts
07-Sep-18 10:16 45.228275 -115.766187 34 17574ft 251kts
07-Sep-18 10:17 45.286246 -115.710195 34 17522ft 252kts
07-Sep-18 10:18 45.344064 -115.654211 34 17515ft 251kts
07-Sep-18 10:18 45.392382 -115.607320 34 17509ft 251kts
07-Sep-18 10:19 45.450102 -115.551174 34 17503ft 251kts
07-Sep-18 10:21 45.517608 -115.485333 34 17492ft 251kts
07-Sep-18 10:22 45.575250 -115.428955 34 17482ft 251kts
07-Sep-18 10:23 45.632873 -115.372451 34 17473ft 251kts
07-Sep-18 10:23 45.681042 -115.325106 34 17466ft 251kts
07-Sep-18 10:24 45.738627 -115.268376 34 17455ft 251kts
07-Sep-18 10:25 45.796147 -115.211561 34 17451ft 251kts
07-Sep-18 10:26 45.853818 -115.154453 34 17448ft 251kts
07-Sep-18 10:27 45.911283 -115.097403 34 17446ft 251kts
07-Sep-18 10:28 45.968703 -115.040250 34 17447ft 251kts
07-Sep-18 10:29 46.026269 -114.982801 34 17449ft 251kts
07-Sep-18 10:30 46.083586 -114.925456 34 17477ft 251kts
07-Sep-18 10:31 46.141086 -114.867778 34 17479ft 251kts
07-Sep-18 10:32 46.198394 -114.810141 34 17486ft 251kts
07-Sep-18 10:33 46.255679 -114.752377 34 17490ft 251kts
07-Sep-18 10:34 46.313144 -114.694281 34 17493ft 251kts
07-Sep-18 10:35 46.370398 -114.636248 34 17496ft 251kts
07-Sep-18 10:36 46.427623 -114.578090 34 17499ft 251kts
07-Sep-18 10:37 46.485024 -114.519602 34 17500ft 251kts
07-Sep-18 10:38 46.542204 -114.461183 34 17500ft 251kts
07-Sep-18 10:39 46.599355 -114.402642 34 17499ft 251kts
07-Sep-18 10:40 46.656672 -114.343776 35 17497ft 251kts
07-Sep-18 10:41 46.713791 -114.284954 35 17495ft 251kts
07-Sep-18 10:42 46.770872 -114.226016 35 17491ft 251kts
07-Sep-18 10:43 46.828111 -114.166760 35 17490ft 251kts
07-Sep-18 10:44 46.885119 -114.107584 35 17490ft 251kts
07-Sep-18 10:45 46.952374 -114.088605 354 16881ft 259kts
07-Sep-18 10:46 47.024323 -114.097620 355 15783ft 259kts
07-Sep-18 10:47 47.096041 -114.106311 355 14684ft 258kts
07-Sep-18 10:49 47.167388 -114.114941 355 13582ft 255kts
07-Sep-18 10:50 47.235259 -114.123160 355 12590ft 236kts
07-Sep-18 10:51 47.297571 -114.130730 355 12365ft 221kts
07-Sep-18 10:52 47.361566 -114.138567 355 10900ft 235kts
07-Sep-18 10:53 47.426531 -114.146504 355 9401ft 233kts
07-Sep-18 10:54 47.489660 -114.154229 355 8510ft 214kts
07-Sep-18 10:55 47.546561 -114.161249 355 8502ft 200kts
07-Sep-18 10:56 47.601762 -114.168047 355 8501ft 198kts
07-Sep-18 10:57 47.656898 -114.174841 355 8499ft 198kts
07-Sep-18 10:58 47.711161 -114.181523 355 8077ft 196kts
07-Sep-18 10:59 47.765067 -114.188178 355 7355ft 190kts
07-Sep-18 11:00 47.816212 -114.197166 349 7078ft 174kts
07-Sep-18 11:01 47.869121 -114.202950 356 6526ft 195kts
07-Sep-18 11:02 47.929489 -114.210415 352 6193ft 168kts
07-Sep-18 11:03 47.964171 -114.219606 345 5824ft 144kts
07-Sep-18 11:04 48.001791 -114.238850 339 5232ft 135kts
07-Sep-18 11:05 48.035110 -114.251725 348 5228ft 118kts
07-Sep-18 11:06 48.071102 -114.258220 356 4830ft 136kts
07-Sep-18 11:07 48.113058 -114.259629 357 4599ft 154kts
07-Sep-18 11:08 48.153697 -114.263465 352 4683ft 147kts
07-Sep-18 11:09 48.193348 -114.277900 339 4772ft 151kts
07-Sep-18 11:10 48.232011 -114.303748 337 4605ft 146kts
07-Sep-18 11:11 48.264760 -114.303652 35 3684ft 100kts
07-Sep-18 11:12 48.287414 -114.279612 33 3238ft 105kts
07-Sep-18 11:13 48.307915 -114.258195 60 2969ft 20kts
07-Sep-18 11:14 48.310470 -114.252423 42 2969ft 17kts
07-Sep-18 11:15 48.311521 -114.250315 17 2969ft 0kts
07-Sep-18 11:16 48.311521 -114.250315 17 2969ft 0kts
07-Sep-18 11:17 48.311521 -114.250315 17 2969ft 0kts
07-Sep-18 11:18 48.311521 -114.250315 17 2969ft 0kts
07-Sep-18 11:19 48.311521 -114.250315 17 2969ft 0kts

Navigation Log

Ident Type
Flight plan parsing failed, navigation log unavailable